Terminal Aerodrome Forecast
Issued by NWS

Home | Current Version | Previous Version | Text Only | Print | Product List | Glossary On
Versions: 1 2 3 4 5 6 7 8 9 10 11 12 13 14 15
000
FTUS43 KEAX 132300
TAFSTJ
TAF
KSTJ 132320Z 1400/1424 14005KT P6SM SKC
     FM140600 VRB02KT P6SM BKN060
     FM141700 17006KT P6SM SCT150=

USA.gov is the U.S. government's official web portal to all federal, state and local government web resources and services.